Startpagina
METAR-TAF:

METAR-TAF

Vliegvelden :

Anchorage, Alaska, Verenigde Staten

breedte: 61-13N, lengte: 149-51W, hoogte: 42 m

Actueel weer

Dit bericht is 35 minuten geleden gemaakt, om 10:53 UTC
Weinig wind
Temperatuur 10°C
Vochtigheid 87%
Druk 1023 hPa
Zicht: 16.1 km
Weinig wolken op 1200 ft
Verspreide wolken op 3400 ft
Gebroken wolken op 7000 ft

METAR: PAMR 191053Z 00000KT 10SM FEW012 SCT034 BKN070 10/08 A3020 RMK AO2 SLP226 T01000083

Tijdstip: 03:28 (11:28 UTC)


TAF: ontbreekt

Waarnemingen en weersverwachtingen van meer dan 4000 vliegvelden (METAR en TAF).

De beschikbare stations zijn de gele en rode punten op de kaart.

Ga met uw muis naar het station om de naam te zien.

Klik dan om waarnemingen en weersverwachtingen te zien.

kaart wijzigen: klik op de groene knoppen met een zwart kruis om in te zoomen, op de groene knop met een streepje om uit te zoomen of op de groene pijlen voor aangrenzende kaarten.


METAR-TAF: